createdAt,value
2023-04-20T00:00:12.703Z,102580.03
2023-04-20T00:02:42.270Z,102583.41
2023-04-20T00:05:11.997Z,102583.41
2023-04-20T00:07:41.698Z,102596.59
2023-04-20T00:10:11.031Z,102607.13
2023-04-20T00:12:39.286Z,102611.91
2023-04-20T00:15:08.738Z,102612.88
2023-04-20T00:17:38.703Z,102607.50
2023-04-20T00:20:11.185Z,102613.81
2023-04-20T00:22:39.387Z,102626.91
2023-04-20T00:25:08.721Z,102626.53
2023-04-20T00:27:36.905Z,102619.09
2023-04-20T00:30:05.789Z,102627.25
2023-04-20T00:32:34.104Z,102623.66
2023-04-20T00:35:03.879Z,102626.28
2023-04-20T00:37:32.162Z,102615.16
2023-04-20T00:40:00.428Z,102618.00
2023-04-20T00:42:28.650Z,102618.63
2023-04-20T00:44:56.871Z,102616.00
2023-04-20T00:47:25.124Z,102606.00
2023-04-20T00:49:53.563Z,102618.13
2023-04-20T00:52:23.578Z,102600.53
2023-04-20T00:54:51.904Z,102601.84
2023-04-20T00:57:24.272Z,102601.09
2023-04-20T00:59:52.653Z,102594.03
2023-04-20T01:02:21.676Z,102584.81
2023-04-20T01:04:50.511Z,102580.28
2023-04-20T01:07:18.608Z,102583.50
2023-04-20T01:09:48.321Z,102582.94
2023-04-20T01:12:16.686Z,102572.63
2023-04-20T01:14:45.016Z,102579.06
2023-04-20T01:17:15.198Z,102577.41
2023-04-20T01:19:44.978Z,102590.56
2023-04-20T01:22:18.216Z,102586.00
2023-04-20T01:24:46.750Z,102592.72
2023-04-20T01:27:16.681Z,102599.53
2023-04-20T01:29:45.086Z,102596.69
2023-04-20T01:32:14.114Z,102605.41
2023-04-20T01:34:42.880Z,102605.06
2023-04-20T01:37:11.056Z,102600.84
2023-04-20T01:39:41.959Z,102606.97
2023-04-20T01:42:10.432Z,102609.50
2023-04-20T01:44:41.193Z,102608.41
2023-04-20T01:47:09.395Z,102608.63
2023-04-20T01:49:37.619Z,102603.72
2023-04-20T01:52:06.079Z,102605.28
2023-04-20T01:54:34.371Z,102604.69
2023-04-20T01:57:04.162Z,102586.72
2023-04-20T01:59:32.369Z,102574.75
2023-04-20T02:02:00.627Z,102583.88
2023-04-20T02:04:28.944Z,102574.53
2023-04-20T02:06:57.182Z,102570.19
2023-04-20T02:09:25.713Z,102570.19
2023-04-20T02:11:53.964Z,102564.22
2023-04-20T02:14:23.563Z,102557.50
2023-04-20T02:16:53.382Z,102557.41
2023-04-20T02:19:21.715Z,102552.25
2023-04-20T02:21:50.025Z,102546.97
2023-04-20T02:24:18.720Z,102549.88
2023-04-20T02:26:46.885Z,102541.47
2023-04-20T02:29:15.096Z,102548.41
2023-04-20T02:31:44.734Z,102555.47
2023-04-20T02:34:13.011Z,102552.72
2023-04-20T02:36:41.115Z,102544.13
2023-04-20T02:39:10.300Z,102557.50
2023-04-20T02:41:38.434Z,102540.28
2023-04-20T02:44:06.855Z,102541.97
2023-04-20T02:46:35.156Z,102541.09
2023-04-20T02:49:04.999Z,102535.97
2023-04-20T02:51:33.394Z,102537.88
2023-04-20T02:54:01.766Z,102547.59
2023-04-20T02:56:30.030Z,102543.59
2023-04-20T02:58:58.238Z,102544.81
2023-04-20T03:01:27.043Z,102547.69
2023-04-20T03:03:55.467Z,102544.31
2023-04-20T03:06:26.772Z,102556.53
2023-04-20T03:08:55.056Z,102557.97
2023-04-20T03:11:23.247Z,102557.97
2023-04-20T03:13:52.702Z,102563.47
2023-04-20T03:16:21.382Z,102563.47
2023-04-20T03:18:49.666Z,102574.69
2023-04-20T03:21:17.792Z,102582.50
2023-04-20T03:23:47.535Z,102579.88
2023-04-20T03:26:15.625Z,102583.44
2023-04-20T03:28:44.252Z,102580.22
2023-04-20T03:31:12.422Z,102581.50
2023-04-20T03:33:40.647Z,102576.84
2023-04-20T03:36:09.622Z,102575.88
2023-04-20T03:38:38.225Z,102574.47
2023-04-20T03:41:08.579Z,102576.22
2023-04-20T03:43:36.852Z,102576.34
2023-04-20T03:46:05.093Z,102569.41
2023-04-20T03:48:34.051Z,102571.31
2023-04-20T03:51:02.233Z,102570.25
2023-04-20T03:53:30.414Z,102568.69
2023-04-20T03:55:58.560Z,102567.97
2023-04-20T03:58:28.142Z,102564.63
2023-04-20T04:01:03.402Z,102562.72
2023-04-20T04:03:31.813Z,102541.66
2023-04-20T04:06:00.262Z,102549.78
2023-04-20T04:08:28.492Z,102546.91
2023-04-20T04:10:56.736Z,102547.16
2023-04-20T04:13:24.887Z,102537.34
2023-04-20T04:15:54.548Z,102542.13
2023-04-20T04:18:23.689Z,102545.09
2023-04-20T04:20:51.888Z,102537.94
2023-04-20T04:23:20.065Z,102543.44
2023-04-20T04:25:48.713Z,102541.53
2023-04-20T04:28:17.289Z,102540.56
2023-04-20T04:30:45.632Z,102549.53
2023-04-20T04:33:15.242Z,102545.94
2023-04-20T04:35:44.067Z,102538.06
2023-04-20T04:38:14.187Z,102533.97
2023-04-20T04:40:46.023Z,102533.84
2023-04-20T04:43:15.096Z,102535.03
2023-04-20T04:45:43.297Z,102531.47
2023-04-20T04:48:23.442Z,102539.56
2023-04-20T04:50:51.811Z,102540.28
2023-04-20T04:53:20.122Z,102545.66
2023-04-20T04:55:48.733Z,102543.03
2023-04-20T04:58:17.281Z,102542.34
2023-04-20T05:00:45.518Z,102543.16
2023-04-20T05:03:14.508Z,102532.66
2023-04-20T05:05:44.948Z,102533.81
2023-04-20T05:08:13.056Z,102538.13
2023-04-20T05:10:41.340Z,102526.16
2023-04-20T05:13:09.484Z,102538.13
2023-04-20T05:15:37.691Z,102537.41
2023-04-20T05:18:06.281Z,102544.97
2023-04-20T05:20:34.637Z,102541.59
2023-04-20T05:23:04.464Z,102547.69
2023-04-20T05:25:34.012Z,102543.50
2023-04-20T05:28:02.180Z,102538.47
2023-04-20T05:30:30.354Z,102534.88
2023-04-20T05:32:58.856Z,102530.50
2023-04-20T05:35:27.387Z,102529.63
2023-04-20T05:37:55.704Z,102535.97
2023-04-20T05:40:25.652Z,102534.38
2023-04-20T05:42:53.907Z,102532.84
2023-04-20T05:45:22.221Z,102534.16
2023-04-20T05:47:57.618Z,102540.75
2023-04-20T05:50:26.703Z,102534.03
2023-04-20T05:52:55.509Z,102541.22
2023-04-20T05:55:25.695Z,102537.84
2023-04-20T05:57:54.250Z,102556.16
2023-04-20T06:00:25.914Z,102562.97
2023-04-20T06:02:55.352Z,102561.44
2023-04-20T06:05:24.066Z,102563.31
2023-04-20T06:07:53.319Z,102557.22
2023-04-20T06:10:21.738Z,102554.72
2023-04-20T06:12:51.463Z,102559.00
2023-04-20T06:15:20.609Z,102565.94
2023-04-20T06:17:50.887Z,102559.63
2023-04-20T06:20:20.289Z,102568.13
2023-04-20T06:22:48.634Z,102560.97
2023-04-20T06:25:17.237Z,102561.59
2023-04-20T06:27:45.470Z,102552.59
2023-04-20T06:30:16.313Z,102551.44
2023-04-20T06:32:44.819Z,102537.31
2023-04-20T06:35:13.042Z,102548.56
2023-04-20T06:37:41.428Z,102539.59
2023-04-20T06:40:10.322Z,102547.28
2023-04-20T06:42:38.489Z,102545.47
2023-04-20T06:45:08.505Z,102553.72
2023-04-20T06:47:38.406Z,102556.97
2023-04-20T06:50:10.006Z,102567.84
2023-04-20T06:52:39.080Z,102565.97
2023-04-20T06:55:13.441Z,102569.41
2023-04-20T06:57:43.968Z,102559.84
2023-04-20T07:00:13.548Z,102554.09
2023-04-20T07:02:47.238Z,102545.38
2023-04-20T07:05:18.972Z,102549.69
2023-04-20T07:07:47.128Z,102564.44
2023-04-20T07:10:16.862Z,102564.66
2023-04-20T07:12:49.680Z,102563.97
2023-04-20T07:15:18.301Z,102571.88
2023-04-20T07:17:48.006Z,102558.00
2023-04-20T07:20:16.329Z,102564.38
2023-04-20T07:22:44.528Z,102562.56
2023-04-20T07:25:12.636Z,102567.75
2023-04-20T07:27:42.794Z,102557.78
2023-04-20T07:30:12.190Z,102562.09
2023-04-20T07:32:41.725Z,102570.22
2023-04-20T07:35:12.510Z,102565.19
2023-04-20T07:37:40.907Z,102560.97
2023-04-20T07:40:10.487Z,102560.84
2023-04-20T07:42:38.804Z,102569.00
2023-04-20T07:45:08.190Z,102563.94
2023-04-20T07:47:37.111Z,102566.81
2023-04-20T07:50:07.400Z,102569.69
2023-04-20T07:52:37.262Z,102576.13
2023-04-20T07:55:06.836Z,102566.38
2023-04-20T07:57:36.875Z,102568.25
2023-04-20T08:00:07.174Z,102554.94
2023-04-20T08:02:35.485Z,102558.31
2023-04-20T08:05:04.516Z,102563.81
2023-04-20T08:07:33.434Z,102575.34
2023-04-20T08:10:03.200Z,102591.34
2023-04-20T08:12:31.505Z,102588.47
2023-04-20T08:15:04.415Z,102591.13
2023-04-20T08:17:34.075Z,102594.09
2023-04-20T08:20:02.435Z,102586.38
2023-04-20T08:22:31.035Z,102593.91
2023-04-20T08:24:59.514Z,102589.06
2023-04-20T08:27:30.670Z,102601.19
2023-04-20T08:29:58.998Z,102610.25
2023-04-20T08:32:27.240Z,102596.94
2023-04-20T08:34:56.557Z,102601.72
2023-04-20T08:37:25.624Z,102601.47
2023-04-20T08:39:53.839Z,102609.31
2023-04-20T08:42:22.120Z,102599.81
2023-04-20T08:44:52.031Z,102604.25
2023-04-20T08:47:22.278Z,102607.47
2023-04-20T08:49:54.400Z,102607.34
2023-04-20T08:52:22.703Z,102606.63
2023-04-20T08:54:56.893Z,102616.41
2023-04-20T08:57:26.133Z,102605.38
2023-04-20T08:59:57.821Z,102614.19
2023-04-20T09:02:26.318Z,102603.13
2023-04-20T09:05:02.978Z,102604.97
2023-04-20T09:07:31.415Z,102611.22
2023-04-20T09:10:00.675Z,102605.13
2023-04-20T09:12:29.298Z,102601.56
2023-04-20T09:14:58.905Z,102601.88
2023-04-20T09:17:34.881Z,102597.00
2023-04-20T09:20:05.188Z,102612.19
2023-04-20T09:22:35.087Z,102607.47
2023-04-20T09:25:14.093Z,102606.63
2023-04-20T09:27:42.355Z,102616.38
2023-04-20T09:30:15.169Z,102607.78
2023-04-20T09:32:43.345Z,102612.09
2023-04-20T09:35:11.688Z,102613.69
2023-04-20T09:37:48.981Z,102607.53
2023-04-20T09:40:17.893Z,102608.78
2023-04-20T09:42:46.589Z,102605.31
2023-04-20T09:45:16.926Z,102600.88
2023-04-20T09:47:45.863Z,102604.75
2023-04-20T09:50:26.878Z,102596.41
2023-04-20T09:53:01.957Z,102604.22
2023-04-20T09:55:32.043Z,102602.28
2023-04-20T09:58:03.598Z,102592.84
2023-04-20T10:00:33.036Z,102603.13
2023-04-20T10:03:01.481Z,102586.69
2023-04-20T10:05:37.410Z,102590.59
2023-04-20T10:08:05.614Z,102582.22
2023-04-20T10:10:45.367Z,102603.06
2023-04-20T10:13:13.720Z,102596.13
2023-04-20T10:15:44.266Z,102601.09
2023-04-20T10:18:21.312Z,102589.25
2023-04-20T10:20:49.514Z,102593.97
2023-04-20T10:23:19.623Z,102593.78
2023-04-20T10:25:57.846Z,102589.03
2023-04-20T10:28:26.298Z,102593.25
2023-04-20T10:30:56.342Z,102590.41
2023-04-20T10:33:24.679Z,102596.25
2023-04-20T10:35:57.975Z,102594.75
2023-04-20T10:38:29.969Z,102599.97
2023-04-20T10:40:58.045Z,102593.38
2023-04-20T10:43:26.350Z,102591.03
2023-04-20T10:45:56.039Z,102590.69
2023-04-20T10:48:24.347Z,102583.69
2023-04-20T10:50:52.456Z,102585.44
2023-04-20T10:53:25.236Z,102597.97
2023-04-20T10:56:00.198Z,102591.91
2023-04-20T10:58:28.601Z,102584.81
2023-04-20T11:01:02.578Z,102579.09
2023-04-20T11:03:31.909Z,102579.09
2023-04-20T11:06:01.650Z,102578.06
2023-04-20T11:08:40.821Z,102573.69
2023-04-20T11:11:20.105Z,102584.81
2023-04-20T11:13:48.751Z,102575.25
2023-04-20T11:16:21.810Z,102581.75
2023-04-20T11:18:52.980Z,102576.00
2023-04-20T11:21:22.106Z,102574.66
2023-04-20T11:23:50.802Z,102573.34
2023-04-20T11:26:21.816Z,102564.16
2023-04-20T11:28:55.544Z,102575.16
2023-04-20T11:31:28.198Z,102567.09
2023-04-20T11:33:56.636Z,102563.22
2023-04-20T11:36:26.580Z,102556.91
2023-04-20T11:38:55.483Z,102555.00
2023-04-20T11:41:24.092Z,102555.31
2023-04-20T11:43:52.525Z,102550.47
2023-04-20T11:46:21.472Z,102553.03
2023-04-20T11:48:51.081Z,102550.25
2023-04-20T11:51:19.240Z,102548.81
2023-04-20T11:53:47.718Z,102553.44
2023-04-20T11:56:16.055Z,102539.56
2023-04-20T11:58:44.278Z,102537.44
2023-04-20T12:01:13.374Z,102533.94
2023-04-20T12:03:41.674Z,102533.41
2023-04-20T12:06:11.815Z,102544.47
2023-04-20T12:08:40.074Z,102539.16
2023-04-20T12:11:08.189Z,102537.06
2023-04-20T12:13:36.451Z,102542.72
2023-04-20T12:16:04.560Z,102534.94
2023-04-20T12:18:33.095Z,102533.72
2023-04-20T12:21:01.559Z,102536.69
2023-04-20T12:23:31.126Z,102544.81
2023-04-20T12:25:59.363Z,102544.25
2023-04-20T12:28:29.973Z,102548.94
2023-04-20T12:30:58.694Z,102540.94
2023-04-20T12:33:27.037Z,102538.94
2023-04-20T12:35:55.210Z,102546.53
2023-04-20T12:38:23.467Z,102541.63
2023-04-20T12:40:52.972Z,102536.09
2023-04-20T12:43:22.146Z,102539.69
2023-04-20T12:45:50.470Z,102544.66
2023-04-20T12:48:20.719Z,102537.47
2023-04-20T12:50:49.127Z,102533.00
2023-04-20T12:53:17.360Z,102528.53
2023-04-20T12:55:45.533Z,102540.81
2023-04-20T12:58:16.217Z,102533.97
2023-04-20T13:00:44.971Z,102538.66
2023-04-20T13:03:13.325Z,102530.72
2023-04-20T13:05:41.535Z,102537.94
2023-04-20T13:08:15.019Z,102534.84
2023-04-20T13:10:43.829Z,102543.81
2023-04-20T13:13:12.029Z,102531.94
2023-04-20T13:15:41.896Z,102531.34
2023-04-20T13:18:10.822Z,102533.09
2023-04-20T13:20:39.303Z,102522.69
2023-04-20T13:23:07.770Z,102521.63
2023-04-20T13:25:38.329Z,102531.00
2023-04-20T13:28:07.067Z,102516.06
2023-04-20T13:30:36.700Z,102521.09
2023-04-20T13:33:06.989Z,102515.78
2023-04-20T13:35:36.174Z,102512.44
2023-04-20T13:38:05.225Z,102505.53
2023-04-20T13:40:33.554Z,102520.69
2023-04-20T13:43:01.734Z,102514.63
2023-04-20T13:45:30.150Z,102503.88
2023-04-20T13:47:58.896Z,102501.13
2023-04-20T13:50:28.552Z,102500.28
2023-04-20T13:52:56.840Z,102502.56
2023-04-20T13:55:26.797Z,102485.88
2023-04-20T13:57:55.332Z,102489.84
2023-04-20T14:00:23.994Z,102495.81
2023-04-20T14:02:52.257Z,102484.25
2023-04-20T14:05:20.450Z,102478.91
2023-04-20T14:07:49.984Z,102482.22
2023-04-20T14:10:18.335Z,102479.47
2023-04-20T14:12:46.962Z,102471.88
2023-04-20T14:15:15.373Z,102470.88
2023-04-20T14:17:43.624Z,102465.19
2023-04-20T14:20:13.129Z,102460.72
2023-04-20T14:22:43.973Z,102455.50
2023-04-20T14:25:13.669Z,102448.13
2023-04-20T14:27:41.829Z,102448.59
2023-04-20T14:30:11.377Z,102442.03
2023-04-20T14:32:39.716Z,102446.25
2023-04-20T14:35:09.317Z,102438.66
2023-04-20T14:37:37.674Z,102441.47
2023-04-20T14:40:07.762Z,102437.66
2023-04-20T14:42:41.650Z,102432.59
2023-04-20T14:45:11.268Z,102431.44
2023-04-20T14:47:39.934Z,102421.75
2023-04-20T14:50:09.870Z,102429.88
2023-04-20T14:52:38.163Z,102419.34
2023-04-20T14:55:07.313Z,102424.13
2023-04-20T14:57:35.691Z,102424.84
2023-04-20T15:00:07.142Z,102433.41
2023-04-20T15:02:35.552Z,102422.28
2023-04-20T15:05:10.322Z,102427.47
2023-04-20T15:07:39.233Z,102427.09
2023-04-20T15:10:07.925Z,102429.38
2023-04-20T15:12:36.169Z,102423.19
2023-04-20T15:15:06.627Z,102420.44
2023-04-20T15:17:34.833Z,102427.56
2023-04-20T15:20:03.270Z,102415.34
2023-04-20T15:22:31.582Z,102410.50
2023-04-20T15:24:59.823Z,102393.50
2023-04-20T15:27:28.101Z,102394.09
2023-04-20T15:29:58.182Z,102402.47
2023-04-20T15:32:30.266Z,102387.03
2023-04-20T15:35:02.187Z,102390.25
2023-04-20T15:37:30.310Z,102384.97
2023-04-20T15:39:59.313Z,102371.44
2023-04-20T15:42:28.922Z,102378.28
2023-04-20T15:44:56.993Z,102372.41
2023-04-20T15:47:25.497Z,102371.50
2023-04-20T15:50:01.395Z,102369.84
2023-04-20T15:52:30.958Z,102368.84
2023-04-20T15:54:59.149Z,102365.81
2023-04-20T15:57:27.522Z,102353.44
2023-04-20T15:59:55.698Z,102351.50
2023-04-20T16:02:24.266Z,102339.09
2023-04-20T16:04:54.370Z,102330.75
2023-04-20T16:07:25.623Z,102336.16
2023-04-20T16:09:54.205Z,102331.19
2023-04-20T16:12:22.435Z,102327.16
2023-04-20T16:14:52.444Z,102324.50
2023-04-20T16:17:22.079Z,102327.44
2023-04-20T16:19:50.454Z,102311.44
2023-04-20T16:22:20.236Z,102325.25
2023-04-20T16:24:48.505Z,102317.16
2023-04-20T16:27:17.210Z,102307.69
2023-04-20T16:29:47.681Z,102307.84
2023-04-20T16:32:16.020Z,102303.50
2023-04-20T16:34:44.202Z,102304.22
2023-04-20T16:37:16.777Z,102308.94
2023-04-20T16:39:46.522Z,102299.91
2023-04-20T16:42:15.251Z,102313.97
2023-04-20T16:44:43.464Z,102297.97
2023-04-20T16:47:11.620Z,102302.28
2023-04-20T16:49:39.879Z,102309.22
2023-04-20T16:52:08.813Z,102300.47
2023-04-20T16:54:37.438Z,102303.09
2023-04-20T16:57:07.214Z,102308.28
2023-04-20T16:59:35.443Z,102304.09
2023-04-20T17:02:05.519Z,102312.28
2023-04-20T17:04:33.948Z,102302.13
2023-04-20T17:07:02.377Z,102307.84
2023-04-20T17:09:30.717Z,102307.84
2023-04-20T17:11:59.474Z,102308.84
2023-04-20T17:14:30.367Z,102308.16
2023-04-20T17:16:58.723Z,102312.19
2023-04-20T17:19:26.957Z,102308.97
2023-04-20T17:21:55.161Z,102317.19
2023-04-20T17:24:23.452Z,102320.66
2023-04-20T17:26:53.181Z,102330.81
2023-04-20T17:29:21.487Z,102328.91
2023-04-20T17:31:51.321Z,102328.75
2023-04-20T17:34:20.207Z,102321.78
2023-04-20T17:36:48.817Z,102315.25
2023-04-20T17:39:16.984Z,102322.47
2023-04-20T17:41:45.888Z,102316.91
2023-04-20T17:44:14.108Z,102317.34
2023-04-20T17:46:42.285Z,102315.53
2023-04-20T17:49:12.074Z,102316.63
2023-04-20T17:51:40.341Z,102318.88
2023-04-20T17:54:08.513Z,102318.75
2023-04-20T17:56:36.753Z,102313.03
2023-04-20T17:59:05.619Z,102309.00
2023-04-20T18:01:34.855Z,102310.25
2023-04-20T18:04:03.269Z,102310.09
2023-04-20T18:06:33.989Z,102313.56
2023-04-20T18:09:04.970Z,102316.38
2023-04-20T18:11:33.167Z,102303.97
2023-04-20T18:14:02.194Z,102309.00
2023-04-20T18:16:30.401Z,102307.47
2023-04-20T18:18:58.617Z,102318.59
2023-04-20T18:21:27.117Z,102310.66
2023-04-20T18:23:56.868Z,102310.81
2023-04-20T18:26:25.564Z,102311.50
2023-04-20T18:28:53.736Z,102308.44
2023-04-20T18:31:22.044Z,102308.03
2023-04-20T18:33:50.252Z,102308.03
2023-04-20T18:36:18.373Z,102301.22
2023-04-20T18:38:46.590Z,102308.31
2023-04-20T18:41:18.185Z,102303.84
2023-04-20T18:43:49.719Z,102296.06
2023-04-20T18:46:20.095Z,102298.31
2023-04-20T18:48:48.278Z,102290.38
2023-04-20T18:51:16.544Z,102289.69
2023-04-20T18:53:44.824Z,102288.16
2023-04-20T18:56:12.910Z,102281.47
2023-04-20T18:58:42.844Z,102288.56
2023-04-20T19:01:11.182Z,102281.63
2023-04-20T19:03:39.587Z,102279.97
2023-04-20T19:06:07.901Z,102268.00
2023-04-20T19:08:36.047Z,102272.44
2023-04-20T19:11:04.409Z,102262.97
2023-04-20T19:13:32.594Z,102264.94
2023-04-20T19:16:02.356Z,102264.50
2023-04-20T19:18:30.561Z,102254.19
2023-04-20T19:20:58.934Z,102256.84
2023-04-20T19:23:27.304Z,102255.44
2023-04-20T19:25:55.650Z,102252.94
2023-04-20T19:28:24.373Z,102241.81
2023-04-20T19:30:52.840Z,102240.56
2023-04-20T19:33:22.459Z,102242.38
2023-04-20T19:35:51.740Z,102246.28
2023-04-20T19:38:20.109Z,102238.19
2023-04-20T19:40:49.245Z,102237.09
2023-04-20T19:43:18.220Z,102243.63
2023-04-20T19:45:46.572Z,102238.47
2023-04-20T19:48:14.696Z,102232.63
2023-04-20T19:50:44.502Z,102230.25
2023-04-20T19:53:12.703Z,102227.78
2023-04-20T19:55:40.821Z,102225.41
2023-04-20T19:58:10.725Z,102217.31
2023-04-20T20:00:39.347Z,102214.00
2023-04-20T20:03:08.404Z,102212.19
2023-04-20T20:05:36.923Z,102214.41
2023-04-20T20:08:06.600Z,102216.34
2023-04-20T20:10:37.699Z,102217.19
2023-04-20T20:13:06.085Z,102224.25
2023-04-20T20:15:34.341Z,102212.31
2023-04-20T20:18:02.635Z,102220.34
2023-04-20T20:20:32.459Z,102221.06
2023-04-20T20:23:01.318Z,102214.25
2023-04-20T20:25:31.490Z,102219.53
2023-04-20T20:28:00.949Z,102205.34
2023-04-20T20:30:29.187Z,102204.81
2023-04-20T20:32:58.997Z,102215.06
2023-04-20T20:35:31.582Z,102208.81
2023-04-20T20:38:00.035Z,102214.94
2023-04-20T20:40:28.230Z,102202.59
2023-04-20T20:42:58.670Z,102205.34
2023-04-20T20:45:28.091Z,102202.84
2023-04-20T20:47:56.381Z,102205.63
2023-04-20T20:50:26.367Z,102210.34
2023-04-20T20:52:54.608Z,102197.81
2023-04-20T20:55:22.864Z,102201.75
2023-04-20T20:57:51.491Z,102198.13
2023-04-20T21:00:21.300Z,102213.13
2023-04-20T21:02:49.611Z,102205.75
2023-04-20T21:05:18.914Z,102206.47
2023-04-20T21:07:47.214Z,102207.28
2023-04-20T21:10:15.363Z,102205.22
2023-04-20T21:12:43.456Z,102210.34
2023-04-20T21:15:12.823Z,102212.84
2023-04-20T21:17:42.501Z,102212.84
2023-04-20T21:20:11.913Z,102211.19
2023-04-20T21:22:40.588Z,102218.13
2023-04-20T21:25:09.441Z,102218.97
2023-04-20T21:27:37.655Z,102213.81
2023-04-20T21:30:06.746Z,102221.75
2023-04-20T21:32:34.969Z,102213.13
2023-04-20T21:35:10.064Z,102212.56
2023-04-20T21:37:38.318Z,102220.63
2023-04-20T21:40:07.990Z,102221.56
2023-04-20T21:42:36.201Z,102217.28
2023-04-20T21:45:05.782Z,102208.69
2023-04-20T21:47:34.140Z,102207.69
2023-04-20T21:50:02.337Z,102209.50
2023-04-20T21:52:32.394Z,102212.41
2023-04-20T21:55:02.442Z,102193.69
2023-04-20T21:57:30.651Z,102198.94
2023-04-20T21:59:58.824Z,102206.16
2023-04-20T22:02:27.169Z,102216.59
2023-04-20T22:04:56.145Z,102200.44
2023-04-20T22:07:24.368Z,102205.59
2023-04-20T22:09:54.843Z,102206.56
2023-04-20T22:12:38.288Z,102186.97
2023-04-20T22:15:10.887Z,102186.97
2023-04-20T22:17:39.174Z,102188.22
2023-04-20T22:20:09.429Z,102183.91
2023-04-20T22:22:38.888Z,102179.31
2023-04-20T22:25:10.093Z,102184.88
2023-04-20T22:27:39.039Z,102192.22
2023-04-20T22:30:09.719Z,102193.31
2023-04-20T22:32:38.624Z,102197.63
2023-04-20T22:35:07.913Z,102199.41
2023-04-20T22:37:36.425Z,102195.13
2023-04-20T22:40:07.726Z,102192.47
2023-04-20T22:42:37.360Z,102189.97
2023-04-20T22:45:06.274Z,102183.88
2023-04-20T22:47:34.604Z,102177.19
2023-04-20T22:50:03.405Z,102183.31
2023-04-20T22:52:32.043Z,102181.91
2023-04-20T22:55:01.267Z,102177.59
2023-04-20T22:57:29.436Z,102182.16
2023-04-20T22:59:59.917Z,102181.47
2023-04-20T23:02:28.203Z,102170.25
2023-04-20T23:04:56.946Z,102175.75
2023-04-20T23:07:27.663Z,102174.69
2023-04-20T23:09:56.662Z,102173.28
2023-04-20T23:12:26.312Z,102170.75
2023-04-20T23:14:55.014Z,102170.75
2023-04-20T23:17:24.758Z,102161.91
2023-04-20T23:19:52.942Z,102160.91
2023-04-20T23:22:21.151Z,102154.81
2023-04-20T23:24:49.367Z,102160.19
2023-04-20T23:27:17.948Z,102158.53
2023-04-20T23:29:46.501Z,102153.41
2023-04-20T23:32:14.682Z,102155.47
2023-04-20T23:34:46.116Z,102151.03
2023-04-20T23:37:14.321Z,102147.41
2023-04-20T23:39:42.533Z,102158.78
2023-04-20T23:42:10.868Z,102163.53
2023-04-20T23:44:39.073Z,102164.34
2023-04-20T23:47:07.298Z,102159.06
2023-04-20T23:49:35.553Z,102164.47
2023-04-20T23:52:05.861Z,102158.50
2023-04-20T23:54:34.335Z,102168.22
2023-04-20T23:57:02.803Z,102149.19
2023-04-20T23:59:34.027Z,102151.81
